Аэропорт: Кневичи. Владивосток

ICAO: UHWW

METAR:
2019/03/26 13:00
UHWW 261300Z 32002MPS 9999 NSC 01/M13 Q1015 R25L/0///70 NOSIG RMK QFE760
METAR:
2019/03/26 12:21
TAF UHWW 261100Z 2612/2712 36003MPS 9999 NSC 
      BECMG 2622/2624 BKN030 
      TEMPO 2700/2712 5000 -SHSN BKN020CB